createdAt,value
2022-08-26T00:02:20.637Z,26.12
2022-08-26T00:04:51.617Z,26.06
2022-08-26T00:07:20.127Z,26.07
2022-08-26T00:09:50.258Z,26.04
2022-08-26T00:12:35.946Z,26.02
2022-08-26T00:15:07.604Z,26.05
2022-08-26T00:17:40.167Z,26.07
2022-08-26T00:20:11.667Z,26.04
2022-08-26T00:22:44.709Z,26.04
2022-08-26T00:25:15.960Z,26.04
2022-08-26T00:27:48.375Z,26.10
2022-08-26T00:30:22.765Z,26.06
2022-08-26T00:32:52.909Z,26.05
2022-08-26T00:35:21.977Z,26.02
2022-08-26T00:37:53.583Z,26.08
2022-08-26T00:40:27.161Z,26.00
2022-08-26T00:42:56.742Z,26.01
2022-08-26T00:45:26.086Z,26.02
2022-08-26T00:48:04.633Z,26.02
2022-08-26T00:50:36.090Z,25.98
2022-08-26T00:53:05.964Z,25.99
2022-08-26T00:55:42.490Z,26.06
2022-08-26T00:58:13.288Z,26.04
2022-08-26T01:00:42.410Z,25.99
2022-08-26T01:03:15.691Z,26.01
2022-08-26T01:05:43.370Z,25.99
2022-08-26T01:11:40.947Z,25.99
2022-08-26T01:14:35.241Z,25.99
2022-08-26T01:17:25.744Z,25.98
2022-08-26T01:23:48.331Z,25.99
2022-08-26T01:26:20.180Z,26.00
2022-08-26T01:28:51.625Z,25.95
2022-08-26T01:31:26.114Z,25.98
2022-08-26T01:33:59.823Z,25.94
2022-08-26T01:36:29.049Z,25.95
2022-08-26T01:38:57.108Z,25.92
2022-08-26T01:41:29.069Z,26.01
2022-08-26T01:44:01.059Z,25.96
2022-08-26T01:46:30.665Z,25.95
2022-08-26T01:49:01.191Z,25.93
2022-08-26T01:51:33.499Z,25.94
2022-08-26T01:54:03.055Z,25.96
2022-08-26T01:56:36.744Z,25.91
2022-08-26T01:59:07.888Z,25.93
2022-08-26T02:01:40.366Z,25.93
2022-08-26T02:04:31.362Z,25.96
2022-08-26T02:07:00.468Z,25.90
2022-08-26T02:09:30.817Z,25.94
2022-08-26T02:11:59.785Z,25.89
2022-08-26T02:14:43.821Z,25.93
2022-08-26T02:17:12.854Z,25.89
2022-08-26T02:19:43.877Z,25.87
2022-08-26T02:22:17.385Z,25.87
2022-08-26T02:25:03.689Z,25.93
2022-08-26T02:27:36.649Z,25.88
2022-08-26T02:30:13.106Z,25.94
2022-08-26T02:32:43.552Z,25.94
2022-08-26T02:35:18.309Z,25.94
2022-08-26T02:37:49.697Z,25.88
2022-08-26T02:40:24.674Z,25.92
2022-08-26T02:42:56.963Z,25.91
2022-08-26T02:45:28.561Z,25.85
2022-08-26T02:47:59.774Z,25.87
2022-08-26T02:50:31.460Z,25.81
2022-08-26T02:53:02.025Z,25.84
2022-08-26T02:55:31.645Z,25.85
2022-08-26T02:57:59.598Z,25.82
2022-08-26T03:00:27.403Z,25.84
2022-08-26T03:03:02.004Z,25.84
2022-08-26T03:05:39.822Z,25.84
2022-08-26T03:08:12.867Z,25.83
2022-08-26T03:10:45.153Z,25.87
2022-08-26T03:13:12.919Z,25.82
2022-08-26T03:15:41.946Z,25.81
2022-08-26T03:18:16.060Z,25.83
2022-08-26T03:20:45.024Z,25.81
2022-08-26T03:23:14.842Z,25.80
2022-08-26T03:25:45.095Z,25.77
2022-08-26T03:28:15.356Z,25.82
2022-08-26T03:30:49.252Z,25.77
2022-08-26T03:33:20.208Z,25.79
2022-08-26T03:35:50.769Z,25.76
2022-08-26T03:38:28.765Z,25.73
2022-08-26T03:40:59.411Z,25.78
2022-08-26T03:43:30.553Z,25.77
2022-08-26T03:45:59.604Z,25.72
2022-08-26T03:48:30.559Z,25.77
2022-08-26T03:51:01.608Z,25.79
2022-08-26T03:53:33.670Z,25.81
2022-08-26T03:56:07.808Z,25.72
2022-08-26T03:58:42.776Z,25.76
2022-08-26T04:01:12.810Z,25.75
2022-08-26T04:04:00.042Z,25.73
2022-08-26T04:06:44.539Z,25.70
2022-08-26T04:09:19.474Z,25.72
2022-08-26T04:11:50.387Z,25.69
2022-08-26T04:14:27.499Z,25.70
2022-08-26T04:17:01.066Z,25.67
2022-08-26T04:19:31.833Z,25.67
2022-08-26T04:43:38.943Z,25.66
2022-08-26T04:46:09.056Z,25.70
2022-08-26T04:48:43.854Z,25.73
2022-08-26T04:51:14.121Z,25.69
2022-08-26T04:53:43.906Z,25.68
2022-08-26T04:56:12.206Z,25.68
2022-08-26T04:58:42.559Z,25.67
2022-08-26T05:01:14.152Z,25.62
2022-08-26T05:03:46.828Z,25.68
2022-08-26T05:06:14.344Z,25.60
2022-08-26T05:08:48.818Z,25.64
2022-08-26T05:11:18.453Z,25.61
2022-08-26T05:13:46.509Z,25.68
2022-08-26T05:16:15.669Z,25.64
2022-08-26T05:18:46.487Z,25.64
2022-08-26T05:21:23.637Z,25.65
2022-08-26T05:23:55.551Z,25.67
2022-08-26T05:26:27.255Z,25.65
2022-08-26T05:29:01.483Z,25.66
2022-08-26T05:31:32.882Z,25.67
2022-08-26T05:34:03.618Z,25.69
2022-08-26T05:36:32.959Z,25.63
2022-08-26T05:41:59.805Z,25.62
2022-08-26T05:44:29.873Z,25.62
2022-08-26T05:47:19.350Z,25.65
2022-08-26T05:49:53.739Z,25.66
2022-08-26T05:52:21.218Z,25.69
2022-08-26T05:54:55.966Z,25.66
2022-08-26T05:57:24.578Z,25.65
2022-08-26T05:59:59.983Z,25.70
2022-08-26T06:02:33.890Z,25.67
2022-08-26T06:05:07.602Z,25.68
2022-08-26T06:07:54.759Z,25.64
2022-08-26T06:10:32.055Z,25.70
2022-08-26T06:13:09.202Z,25.63
2022-08-26T06:15:46.746Z,25.64
2022-08-26T06:18:16.577Z,25.61
2022-08-26T06:20:49.513Z,25.61
2022-08-26T06:23:45.724Z,25.60
2022-08-26T06:26:17.859Z,25.66
2022-08-26T06:28:50.963Z,25.68
2022-08-26T06:31:22.033Z,25.67
2022-08-26T06:33:50.995Z,25.63
2022-08-26T06:36:25.164Z,25.61
2022-08-26T06:38:56.585Z,25.65
2022-08-26T06:41:26.772Z,25.68
2022-08-26T06:43:55.133Z,25.63
2022-08-26T06:46:26.547Z,25.69
2022-08-26T06:48:54.572Z,25.65
2022-08-26T06:51:29.288Z,25.65
2022-08-26T06:53:59.857Z,25.63
2022-08-26T06:56:34.436Z,25.70
2022-08-26T06:59:07.602Z,25.65
2022-08-26T07:01:38.238Z,25.63
2022-08-26T07:04:12.594Z,25.62
2022-08-26T07:06:45.450Z,25.64
2022-08-26T07:09:16.120Z,25.63
2022-08-26T07:11:45.711Z,25.68
2022-08-26T07:14:13.796Z,25.64
2022-08-26T07:16:45.653Z,25.68
2022-08-26T07:19:13.852Z,25.63
2022-08-26T07:21:42.952Z,25.66
2022-08-26T07:24:12.947Z,25.61
2022-08-26T07:26:44.296Z,25.61
2022-08-26T07:29:14.722Z,25.67
2022-08-26T07:31:43.186Z,25.60
2022-08-26T07:34:12.165Z,25.65
2022-08-26T07:36:42.186Z,25.61
2022-08-26T07:39:11.607Z,25.67
2022-08-26T07:41:39.284Z,25.65
2022-08-26T07:44:07.496Z,25.64
2022-08-26T07:46:36.358Z,25.64
2022-08-26T07:49:04.516Z,25.67
2022-08-26T07:51:33.386Z,25.65
2022-08-26T07:54:01.505Z,25.69
2022-08-26T07:56:30.533Z,25.71
2022-08-26T07:58:58.009Z,25.64
2022-08-26T08:01:26.654Z,25.64
2022-08-26T08:03:56.252Z,25.70
2022-08-26T08:06:27.207Z,25.68
2022-08-26T08:08:59.754Z,25.69
2022-08-26T08:11:29.753Z,25.69
2022-08-26T08:13:58.786Z,25.68
2022-08-26T08:16:26.920Z,25.68
2022-08-26T08:18:57.035Z,25.70
2022-08-26T08:21:27.127Z,25.71
2022-08-26T08:23:57.289Z,25.71
2022-08-26T08:26:26.918Z,25.68
2022-08-26T08:28:57.839Z,25.68
2022-08-26T08:31:56.561Z,25.67
2022-08-26T08:34:25.869Z,25.67
2022-08-26T08:36:56.369Z,25.66
2022-08-26T08:39:25.180Z,25.65
2022-08-26T08:41:55.430Z,25.70
2022-08-26T08:47:04.509Z,25.66
2022-08-26T08:49:32.560Z,25.64
2022-08-26T08:52:10.380Z,25.73
2022-08-26T08:54:39.657Z,25.70
2022-08-26T08:57:13.702Z,25.72
2022-08-26T08:59:46.146Z,25.71
2022-08-26T09:02:28.325Z,25.68
2022-08-26T09:05:05.849Z,25.74
2022-08-26T09:07:46.429Z,25.67
2022-08-26T09:10:37.977Z,25.69
2022-08-26T09:13:16.318Z,25.69
2022-08-26T09:16:00.088Z,25.74
2022-08-26T09:19:02.200Z,25.76
2022-08-26T09:21:34.634Z,25.74
2022-08-26T09:24:07.239Z,25.78
2022-08-26T09:26:40.307Z,25.81
2022-08-26T09:29:15.520Z,25.81
2022-08-26T09:31:44.206Z,25.78
2022-08-26T09:34:20.494Z,25.77
2022-08-26T09:36:49.958Z,25.80
2022-08-26T09:39:38.218Z,25.84
2022-08-26T09:42:21.578Z,25.85
2022-08-26T09:45:04.670Z,25.82
2022-08-26T09:47:53.330Z,25.80
2022-08-26T09:50:29.199Z,25.81
2022-08-26T09:53:20.940Z,25.85
2022-08-26T09:55:50.033Z,25.84
2022-08-26T09:58:38.076Z,25.80
2022-08-26T10:01:07.978Z,25.83
2022-08-26T10:03:39.969Z,25.82
2022-08-26T10:06:29.431Z,25.81
2022-08-26T10:09:00.174Z,25.83
2022-08-26T10:12:10.150Z,25.89
2022-08-26T10:17:32.311Z,25.87
2022-08-26T10:20:23.572Z,25.84
2022-08-26T10:23:02.342Z,25.90
2022-08-26T10:25:34.413Z,25.85
2022-08-26T10:28:08.670Z,25.84
2022-08-26T10:30:46.213Z,25.83
2022-08-26T10:33:17.958Z,25.85
2022-08-26T10:35:57.600Z,25.84
2022-08-26T10:38:36.647Z,25.88
2022-08-26T10:41:18.708Z,25.91
2022-08-26T10:44:08.381Z,25.92
2022-08-26T10:47:04.812Z,25.92
2022-08-26T10:49:32.823Z,25.89
2022-08-26T10:52:12.208Z,25.91
2022-08-26T10:54:47.946Z,25.96
2022-08-26T10:57:20.985Z,25.97
2022-08-26T10:59:51.647Z,25.98
2022-08-26T11:02:27.902Z,25.96
2022-08-26T11:05:01.116Z,25.94
2022-08-26T11:07:37.665Z,25.99
2022-08-26T11:10:17.239Z,25.99
2022-08-26T11:12:49.585Z,26.00
2022-08-26T11:15:27.442Z,26.01
2022-08-26T11:17:58.336Z,25.96
2022-08-26T11:20:41.568Z,26.01
2022-08-26T11:23:23.504Z,26.02
2022-08-26T11:25:58.353Z,26.03
2022-08-26T11:28:38.534Z,25.97
2022-08-26T11:31:10.381Z,25.97
2022-08-26T11:33:50.877Z,26.01
2022-08-26T11:36:42.684Z,26.00
2022-08-26T11:39:36.742Z,26.03
2022-08-26T11:42:33.824Z,26.06
2022-08-26T11:45:05.760Z,26.03
2022-08-26T11:47:34.897Z,26.07
2022-08-26T11:50:16.988Z,26.06
2022-08-26T11:53:02.800Z,26.04
2022-08-26T11:55:31.253Z,26.07
2022-08-26T11:58:01.319Z,26.12
2022-08-26T12:00:36.764Z,26.09
2022-08-26T12:03:07.377Z,26.08
2022-08-26T12:05:43.216Z,26.05
2022-08-26T12:08:13.273Z,26.09
2022-08-26T12:10:41.339Z,26.09
2022-08-26T12:13:10.345Z,26.16
2022-08-26T12:15:38.413Z,26.13
2022-08-26T12:18:28.677Z,26.16
2022-08-26T12:20:57.508Z,26.14
2022-08-26T12:23:38.916Z,26.23
2022-08-26T12:26:17.618Z,26.23
2022-08-26T12:28:53.545Z,26.21
2022-08-26T12:31:28.535Z,26.21
2022-08-26T12:34:01.853Z,26.24
2022-08-26T12:36:33.851Z,26.26
2022-08-26T12:39:11.930Z,26.27
2022-08-26T12:41:53.926Z,26.29
2022-08-26T12:44:54.223Z,26.33
2022-08-26T12:47:39.075Z,26.27
2022-08-26T12:50:20.779Z,26.31
2022-08-26T12:52:59.118Z,26.36
2022-08-26T12:55:44.187Z,26.29
2022-08-26T12:58:21.112Z,26.39
2022-08-26T13:00:55.139Z,26.36
2022-08-26T13:03:35.338Z,26.43
2022-08-26T13:06:32.319Z,26.39
2022-08-26T13:09:06.549Z,26.45
2022-08-26T13:11:41.314Z,26.49
2022-08-26T13:14:18.452Z,26.49
2022-08-26T13:16:53.609Z,26.53
2022-08-26T13:19:24.662Z,26.53
2022-08-26T13:22:23.744Z,26.52
2022-08-26T13:24:55.653Z,26.60
2022-08-26T13:27:25.309Z,26.57
2022-08-26T13:29:56.704Z,26.61
2022-08-26T13:32:26.906Z,26.63
2022-08-26T13:34:55.451Z,26.63
2022-08-26T13:37:34.127Z,26.61
2022-08-26T13:40:28.459Z,26.68
2022-08-26T14:50:02.495Z,27.31
2022-08-26T14:52:50.547Z,27.27
2022-08-26T14:55:19.643Z,27.33
2022-08-26T14:57:51.607Z,27.32
2022-08-26T15:00:21.930Z,27.35
2022-08-26T15:02:51.878Z,27.43
2022-08-26T15:05:26.555Z,27.43
2022-08-26T15:51:27.542Z,27.10
2022-08-26T15:53:56.867Z,27.01
2022-08-26T15:56:28.647Z,27.06
2022-08-26T15:58:57.175Z,27.07
2022-08-26T16:01:27.420Z,27.11
2022-08-26T16:03:57.900Z,27.06
2022-08-26T16:09:08.545Z,27.04
2022-08-26T16:14:57.954Z,27.12
2022-08-26T16:17:28.232Z,27.07
2022-08-26T16:20:07.069Z,27.10
2022-08-26T16:22:40.094Z,27.04
